Terminal Aerodrome Forecast
Issued by NWS Springfield, MO

Home | Current Version | Previous Version | Text Only | Print | Product List | Glossary On
Versions: 1 2 3 4 5 6 7 8 9 10 11 12 13 14 15 16 17 18 19
000
FTUS43 KSGF 282100 AAA
TAFSGF
TAF AMD
KSGF 282102Z 2821/2918 23013G20KT P6SM SCT040 SCT120
     FM290000 23006KT P6SM SCT050 SCT080
     FM290300 25006KT P6SM VCTS SCT050CB BKN080
     FM290700 26004KT P6SM SCT250
     FM291500 30004KT P6SM SKC=

USA.gov is the U.S. government's official web portal to all federal, state and local government web resources and services.